sensor_id;sensor_type;location;lat;lon;timestamp;pressure;altitude;pressure_sealevel;temperature;humidity
71105;BME280;58760;48.716;8.962;2023-11-19T00:02:16;96520.09;;;7.47;100.00
71105;BME280;58760;48.716;8.962;2023-11-19T00:04:41;96514.94;;;7.63;100.00
71105;BME280;58760;48.716;8.962;2023-11-19T00:07:07;96510.38;;;7.73;100.00
71105;BME280;58760;48.716;8.962;2023-11-19T00:09:33;96501.75;;;7.71;100.00
71105;BME280;58760;48.716;8.962;2023-11-19T00:11:59;96504.78;;;7.76;100.00
71105;BME280;58760;48.716;8.962;2023-11-19T00:14:26;96497.81;;;7.75;100.00
71105;BME280;58760;48.716;8.962;2023-11-19T00:16:51;96499.19;;;7.79;100.00
71105;BME280;58760;48.716;8.962;2023-11-19T00:19:17;96489.91;;;7.75;100.00
71105;BME280;58760;48.716;8.962;2023-11-19T00:21:42;96496.16;;;7.74;100.00
71105;BME280;58760;48.716;8.962;2023-11-19T00:24:08;96496.22;;;7.82;100.00
71105;BME280;58760;48.716;8.962;2023-11-19T00:26:33;96511.31;;;7.89;100.00
71105;BME280;58760;48.716;8.962;2023-11-19T00:28:59;96495.44;;;7.89;100.00
71105;BME280;58760;48.716;8.962;2023-11-19T00:31:25;96488.19;;;7.92;100.00
71105;BME280;58760;48.716;8.962;2023-11-19T00:33:53;96475.13;;;7.90;100.00
71105;BME280;58760;48.716;8.962;2023-11-19T00:36:18;96479.44;;;7.91;100.00
71105;BME280;58760;48.716;8.962;2023-11-19T00:38:44;96472.78;;;7.87;100.00
71105;BME280;58760;48.716;8.962;2023-11-19T00:41:09;96464.41;;;7.92;100.00
71105;BME280;58760;48.716;8.962;2023-11-19T00:43:35;96460.94;;;7.91;100.00
71105;BME280;58760;48.716;8.962;2023-11-19T00:46:01;96462.41;;;7.94;100.00
71105;BME280;58760;48.716;8.962;2023-11-19T00:48:27;96466.59;;;8.04;100.00
71105;BME280;58760;48.716;8.962;2023-11-19T00:50:53;96465.06;;;7.94;100.00
71105;BME280;58760;48.716;8.962;2023-11-19T00:53:19;96456.03;;;8.04;100.00
71105;BME280;58760;48.716;8.962;2023-11-19T00:55:44;96455.25;;;8.12;100.00
71105;BME280;58760;48.716;8.962;2023-11-19T00:58:09;96446.44;;;8.03;100.00
71105;BME280;58760;48.716;8.962;2023-11-19T01:00:35;96448.59;;;8.00;100.00
71105;BME280;58760;48.716;8.962;2023-11-19T01:03:00;96451.72;;;8.03;100.00
71105;BME280;58760;48.716;8.962;2023-11-19T01:05:26;96452.09;;;8.08;100.00
71105;BME280;58760;48.716;8.962;2023-11-19T01:07:51;96451.13;;;8.17;100.00
71105;BME280;58760;48.716;8.962;2023-11-19T01:10:18;96444.50;;;8.13;100.00
71105;BME280;58760;48.716;8.962;2023-11-19T01:12:44;96448.66;;;8.16;100.00
71105;BME280;58760;48.716;8.962;2023-11-19T01:15:10;96443.72;;;8.21;100.00
71105;BME280;58760;48.716;8.962;2023-11-19T01:17:37;96440.25;;;8.20;100.00
71105;BME280;58760;48.716;8.962;2023-11-19T01:20:03;96444.59;;;8.29;100.00
71105;BME280;58760;48.716;8.962;2023-11-19T01:22:31;96430.03;;;8.25;100.00
71105;BME280;58760;48.716;8.962;2023-11-19T01:24:56;96433.47;;;8.26;100.00
71105;BME280;58760;48.716;8.962;2023-11-19T01:27:23;96425.28;;;8.29;100.00
71105;BME280;58760;48.716;8.962;2023-11-19T01:29:49;96424.63;;;8.35;100.00
71105;BME280;58760;48.716;8.962;2023-11-19T01:32:14;96432.72;;;8.33;100.00
71105;BME280;58760;48.716;8.962;2023-11-19T01:34:40;96425.09;;;8.30;100.00
71105;BME280;58760;48.716;8.962;2023-11-19T01:37:06;96426.91;;;8.30;100.00
71105;BME280;58760;48.716;8.962;2023-11-19T01:39:34;96423.28;;;8.39;100.00
71105;BME280;58760;48.716;8.962;2023-11-19T01:42:00;96433.41;;;8.44;100.00
71105;BME280;58760;48.716;8.962;2023-11-19T01:44:25;96433.72;;;8.40;100.00
71105;BME280;58760;48.716;8.962;2023-11-19T01:46:50;96423.81;;;8.43;100.00
71105;BME280;58760;48.716;8.962;2023-11-19T01:49:17;96421.00;;;8.44;100.00
71105;BME280;58760;48.716;8.962;2023-11-19T01:51:44;96427.13;;;8.45;100.00
71105;BME280;58760;48.716;8.962;2023-11-19T01:54:10;96421.34;;;8.49;100.00
71105;BME280;58760;48.716;8.962;2023-11-19T01:56:36;96419.19;;;8.53;100.00
71105;BME280;58760;48.716;8.962;2023-11-19T01:59:06;96421.38;;;8.57;100.00
71105;BME280;58760;48.716;8.962;2023-11-19T02:01:32;96412.28;;;8.68;100.00
71105;BME280;58760;48.716;8.962;2023-11-19T02:03:59;96410.31;;;8.86;100.00
71105;BME280;58760;48.716;8.962;2023-11-19T02:06:27;96412.13;;;8.93;100.00
71105;BME280;58760;48.716;8.962;2023-11-19T02:08:53;96418.91;;;8.88;100.00
71105;BME280;58760;48.716;8.962;2023-11-19T02:11:19;96413.94;;;8.85;100.00
71105;BME280;58760;48.716;8.962;2023-11-19T02:13:44;96418.91;;;8.88;100.00
71105;BME280;58760;48.716;8.962;2023-11-19T02:16:09;96412.78;;;8.96;100.00
71105;BME280;58760;48.716;8.962;2023-11-19T02:18:36;96406.84;;;9.10;100.00
71105;BME280;58760;48.716;8.962;2023-11-19T02:21:02;96404.00;;;9.11;100.00
71105;BME280;58760;48.716;8.962;2023-11-19T02:23:28;96408.13;;;9.14;100.00
71105;BME280;58760;48.716;8.962;2023-11-19T02:26:03;96391.28;;;9.23;100.00
71105;BME280;58760;48.716;8.962;2023-11-19T02:28:32;96398.72;;;9.19;100.00
71105;BME280;58760;48.716;8.962;2023-11-19T02:30:58;96400.84;;;9.32;100.00
71105;BME280;58760;48.716;8.962;2023-11-19T02:33:25;96404.00;;;9.27;100.00
71105;BME280;58760;48.716;8.962;2023-11-19T02:35:50;96400.66;;;9.33;100.00
71105;BME280;58760;48.716;8.962;2023-11-19T02:38:16;96402.66;;;9.39;100.00
71105;BME280;58760;48.716;8.962;2023-11-19T02:40:42;96401.00;;;9.38;100.00
71105;BME280;58760;48.716;8.962;2023-11-19T02:43:07;96401.69;;;9.32;100.00
71105;BME280;58760;48.716;8.962;2023-11-19T02:45:33;96400.66;;;9.41;100.00
71105;BME280;58760;48.716;8.962;2023-11-19T02:47:59;96409.59;;;9.40;100.00
71105;BME280;58760;48.716;8.962;2023-11-19T02:50:28;96414.56;;;9.43;100.00
71105;BME280;58760;48.716;8.962;2023-11-19T02:52:54;96397.53;;;9.46;100.00
71105;BME280;58760;48.716;8.962;2023-11-19T02:55:21;96399.16;;;9.47;100.00
71105;BME280;58760;48.716;8.962;2023-11-19T02:57:49;96384.59;;;9.51;100.00
71105;BME280;58760;48.716;8.962;2023-11-19T03:00:19;96392.34;;;9.53;100.00
71105;BME280;58760;48.716;8.962;2023-11-19T03:02:50;96393.84;;;9.47;100.00
71105;BME280;58760;48.716;8.962;2023-11-19T03:05:25;96405.28;;;9.48;100.00
71105;BME280;58760;48.716;8.962;2023-11-19T03:07:50;96395.53;;;9.48;100.00
71105;BME280;58760;48.716;8.962;2023-11-19T03:10:16;96406.94;;;9.49;100.00
71105;BME280;58760;48.716;8.962;2023-11-19T03:12:44;96402.81;;;9.46;100.00
71105;BME280;58760;48.716;8.962;2023-11-19T03:15:10;96407.44;;;9.52;100.00
71105;BME280;58760;48.716;8.962;2023-11-19T03:17:41;96403.91;;;9.60;100.00
71105;BME280;58760;48.716;8.962;2023-11-19T03:20:08;96406.06;;;9.56;100.00
71105;BME280;58760;48.716;8.962;2023-11-19T03:22:40;96400.63;;;9.58;100.00
71105;BME280;58760;48.716;8.962;2023-11-19T03:25:07;96405.75;;;9.59;100.00
71105;BME280;58760;48.716;8.962;2023-11-19T03:27:34;96396.66;;;9.54;100.00
71105;BME280;58760;48.716;8.962;2023-11-19T03:30:02;96400.13;;;9.54;100.00
71105;BME280;58760;48.716;8.962;2023-11-19T03:32:28;96407.94;;;9.56;100.00
71105;BME280;58760;48.716;8.962;2023-11-19T03:34:54;96404.25;;;9.57;100.00
71105;BME280;58760;48.716;8.962;2023-11-19T03:37:20;96395.66;;;9.55;100.00
71105;BME280;58760;48.716;8.962;2023-11-19T03:39:46;96392.69;;;9.58;100.00
71105;BME280;58760;48.716;8.962;2023-11-19T03:42:12;96394.34;;;9.59;100.00
71105;BME280;58760;48.716;8.962;2023-11-19T03:44:39;96401.13;;;9.61;100.00
71105;BME280;58760;48.716;8.962;2023-11-19T03:47:04;96403.56;;;9.63;100.00
71105;BME280;58760;48.716;8.962;2023-11-19T03:49:30;96392.03;;;9.56;100.00
71105;BME280;58760;48.716;8.962;2023-11-19T03:51:55;96390.03;;;9.58;100.00
71105;BME280;58760;48.716;8.962;2023-11-19T03:54:21;96388.38;;;9.57;100.00
71105;BME280;58760;48.716;8.962;2023-11-19T03:56:48;96389.38;;;9.56;100.00
71105;BME280;58760;48.716;8.962;2023-11-19T03:59:13;96377.78;;;9.57;100.00
71105;BME280;58760;48.716;8.962;2023-11-19T04:01:40;96384.38;;;9.61;100.00
71105;BME280;58760;48.716;8.962;2023-11-19T04:04:06;96379.25;;;9.59;100.00
71105;BME280;58760;48.716;8.962;2023-11-19T04:06:31;96370.50;;;9.59;100.00
71105;BME280;58760;48.716;8.962;2023-11-19T04:08:57;96381.91;;;9.59;100.00
71105;BME280;58760;48.716;8.962;2023-11-19T04:11:22;96388.84;;;9.68;100.00
71105;BME280;58760;48.716;8.962;2023-11-19T04:13:48;96403.53;;;9.79;100.00
71105;BME280;58760;48.716;8.962;2023-11-19T04:16:14;96400.41;;;9.75;100.00
71105;BME280;58760;48.716;8.962;2023-11-19T04:18:40;96398.56;;;9.76;100.00
71105;BME280;58760;48.716;8.962;2023-11-19T04:21:07;96398.06;;;9.80;100.00
71105;BME280;58760;48.716;8.962;2023-11-19T04:23:32;96397.28;;;9.72;100.00
71105;BME280;58760;48.716;8.962;2023-11-19T04:25:58;96395.28;;;9.74;100.00
71105;BME280;58760;48.716;8.962;2023-11-19T04:28:23;96406.84;;;9.81;100.00
71105;BME280;58760;48.716;8.962;2023-11-19T04:30:52;96401.22;;;9.84;100.00
71105;BME280;58760;48.716;8.962;2023-11-19T04:33:17;96399.38;;;9.84;100.00
71105;BME280;58760;48.716;8.962;2023-11-19T04:35:43;96409.81;;;9.86;100.00
71105;BME280;58760;48.716;8.962;2023-11-19T04:38:08;96400.88;;;9.87;100.00
71105;BME280;58760;48.716;8.962;2023-11-19T04:40:34;96401.84;;;9.86;100.00
71105;BME280;58760;48.716;8.962;2023-11-19T04:42:59;96400.88;;;9.87;100.00
71105;BME280;58760;48.716;8.962;2023-11-19T04:45:24;96402.19;;;9.91;100.00
71105;BME280;58760;48.716;8.962;2023-11-19T04:47:50;96403.00;;;9.91;100.00
71105;BME280;58760;48.716;8.962;2023-11-19T04:50:15;96410.28;;;9.89;100.00
71105;BME280;58760;48.716;8.962;2023-11-19T04:52:41;96402.34;;;9.89;100.00
71105;BME280;58760;48.716;8.962;2023-11-19T04:55:10;96409.78;;;9.94;100.00
71105;BME280;58760;48.716;8.962;2023-11-19T04:57:37;96406.78;;;9.97;100.00
71105;BME280;58760;48.716;8.962;2023-11-19T05:00:03;96406.66;;;9.90;100.00
71105;BME280;58760;48.716;8.962;2023-11-19T05:02:30;96410.28;;;9.89;100.00
71105;BME280;58760;48.716;8.962;2023-11-19T05:04:55;96418.03;;;9.99;100.00
71105;BME280;58760;48.716;8.962;2023-11-19T05:07:21;96406.72;;;10.13;100.00
71105;BME280;58760;48.716;8.962;2023-11-19T05:09:46;96397.31;;;10.03;100.00
71105;BME280;58760;48.716;8.962;2023-11-19T05:12:12;96405.44;;;10.01;100.00
71105;BME280;58760;48.716;8.962;2023-11-19T05:14:38;96402.47;;;10.04;100.00
71105;BME280;58760;48.716;8.962;2023-11-19T05:17:03;96396.44;;;10.18;100.00
71105;BME280;58760;48.716;8.962;2023-11-19T05:19:29;96392.78;;;10.11;100.00
71105;BME280;58760;48.716;8.962;2023-11-19T05:21:54;96392.16;;;10.09;100.00
71105;BME280;58760;48.716;8.962;2023-11-19T05:24:19;96407.41;;;10.07;100.00
71105;BME280;58760;48.716;8.962;2023-11-19T05:26:45;96409.53;;;10.12;100.00
71105;BME280;58760;48.716;8.962;2023-11-19T05:29:10;96412.38;;;10.10;100.00
71105;BME280;58760;48.716;8.962;2023-11-19T05:31:35;96408.91;;;10.02;100.00
71105;BME280;58760;48.716;8.962;2023-11-19T05:34:01;96402.47;;;10.04;100.00
71105;BME280;58760;48.716;8.962;2023-11-19T05:36:26;96408.47;;;9.90;100.00
71105;BME280;58760;48.716;8.962;2023-11-19T05:38:52;96406.50;;;9.84;100.00
71105;BME280;58760;48.716;8.962;2023-11-19T05:41:18;96397.22;;;9.88;100.00
71105;BME280;58760;48.716;8.962;2023-11-19T05:43:46;96403.94;;;9.98;100.00
71105;BME280;58760;48.716;8.962;2023-11-19T05:46:12;96401.09;;;10.08;100.00
71105;BME280;58760;48.716;8.962;2023-11-19T05:48:38;96400.09;;;10.09;100.00
71105;BME280;58760;48.716;8.962;2023-11-19T05:51:04;96400.94;;;10.10;100.00
71105;BME280;58760;48.716;8.962;2023-11-19T05:53:31;96405.06;;;10.12;100.00
71105;BME280;58760;48.716;8.962;2023-11-19T05:55:57;96403.38;;;10.11;100.00
71105;BME280;58760;48.716;8.962;2023-11-19T05:58:24;96402.09;;;10.15;100.00
71105;BME280;58760;48.716;8.962;2023-11-19T06:00:51;96409.00;;;10.24;100.00
71105;BME280;58760;48.716;8.962;2023-11-19T06:03:16;96415.53;;;10.14;100.00
71105;BME280;58760;48.716;8.962;2023-11-19T06:05:44;96411.06;;;10.06;100.00
71105;BME280;58760;48.716;8.962;2023-11-19T06:08:09;96406.03;;;9.80;100.00
71105;BME280;58760;48.716;8.962;2023-11-19T06:10:35;96405.38;;;9.70;100.00
71105;BME280;58760;48.716;8.962;2023-11-19T06:13:00;96402.94;;;9.53;100.00
71105;BME280;58760;48.716;8.962;2023-11-19T06:15:30;96402.59;;;9.72;100.00
71105;BME280;58760;48.716;8.962;2023-11-19T06:17:55;96411.31;;;9.80;100.00
71105;BME280;58760;48.716;8.962;2023-11-19T06:20:23;96413.38;;;9.62;100.00
71105;BME280;58760;48.716;8.962;2023-11-19T06:22:49;96406.88;;;9.73;100.00
71105;BME280;58760;48.716;8.962;2023-11-19T06:25:15;96403.47;;;9.95;100.00
71105;BME280;58760;48.716;8.962;2023-11-19T06:27:42;96404.78;;;9.99;100.00
71105;BME280;58760;48.716;8.962;2023-11-19T06:30:08;96395.00;;;9.99;100.00
71105;BME280;58760;48.716;8.962;2023-11-19T06:32:34;96406.56;;;10.07;100.00
71105;BME280;58760;48.716;8.962;2023-11-19T06:34:59;96404.78;;;9.99;100.00
71105;BME280;58760;48.716;8.962;2023-11-19T06:37:25;96409.03;;;10.08;100.00
71105;BME280;58760;48.716;8.962;2023-11-19T06:39:50;96412.19;;;10.12;100.00
71105;BME280;58760;48.716;8.962;2023-11-19T06:42:15;96412.00;;;10.21;100.00
71105;BME280;58760;48.716;8.962;2023-11-19T06:44:41;96411.34;;;10.19;100.00
71105;BME280;58760;48.716;8.962;2023-11-19T06:47:06;96401.75;;;10.10;100.00
71105;BME280;58760;48.716;8.962;2023-11-19T06:49:32;96411.34;;;10.19;100.00
71105;BME280;58760;48.716;8.962;2023-11-19T06:51:58;96419.19;;;10.05;100.00
71105;BME280;58760;48.716;8.962;2023-11-19T06:54:23;96426.97;;;10.06;100.00
71105;BME280;58760;48.716;8.962;2023-11-19T06:56:49;96411.88;;;10.07;100.00
71105;BME280;58760;48.716;8.962;2023-11-19T06:59:15;96420.00;;;10.05;100.00
71105;BME280;58760;48.716;8.962;2023-11-19T07:01:40;96418.78;;;9.85;100.00
71105;BME280;58760;48.716;8.962;2023-11-19T07:04:12;96424.63;;;9.64;100.00
71105;BME280;58760;48.716;8.962;2023-11-19T07:06:38;96420.97;;;9.65;100.00
71105;BME280;58760;48.716;8.962;2023-11-19T07:09:06;96419.75;;;9.76;100.00
71105;BME280;58760;48.716;8.962;2023-11-19T07:11:36;96420.78;;;9.67;100.00
71105;BME280;58760;48.716;8.962;2023-11-19T07:14:02;96410.38;;;9.65;100.00
71105;BME280;58760;48.716;8.962;2023-11-19T07:16:28;96423.97;;;9.62;100.00
71105;BME280;58760;48.716;8.962;2023-11-19T07:18:53;96435.38;;;9.63;100.00
71105;BME280;58760;48.716;8.962;2023-11-19T07:21:19;96429.97;;;9.95;100.00
71105;BME280;58760;48.716;8.962;2023-11-19T07:23:45;96433.63;;;9.94;100.00
71105;BME280;58760;48.716;8.962;2023-11-19T07:26:12;96438.59;;;9.97;100.00
71105;BME280;58760;48.716;8.962;2023-11-19T07:28:41;96445.00;;;10.11;100.00
71105;BME280;58760;48.716;8.962;2023-11-19T07:31:09;96442.88;;;10.14;100.00
71105;BME280;58760;48.716;8.962;2023-11-19T07:33:35;96454.28;;;10.15;100.00
71105;BME280;58760;48.716;8.962;2023-11-19T07:36:01;96454.41;;;10.21;100.00
71105;BME280;58760;48.716;8.962;2023-11-19T07:38:26;96460.88;;;10.27;100.00
71105;BME280;58760;48.716;8.962;2023-11-19T07:40:52;96455.72;;;10.33;100.00
71105;BME280;58760;48.716;8.962;2023-11-19T07:43:18;96451.75;;;10.29;100.00
71105;BME280;58760;48.716;8.962;2023-11-19T07:45:43;96456.53;;;10.34;100.00
71105;BME280;58760;48.716;8.962;2023-11-19T07:48:10;96455.72;;;10.33;100.00
71105;BME280;58760;48.716;8.962;2023-11-19T07:50:38;96464.09;;;10.45;100.00
71105;BME280;58760;48.716;8.962;2023-11-19T07:53:03;96457.13;;;10.44;100.00
71105;BME280;58760;48.716;8.962;2023-11-19T07:55:29;96455.97;;;10.46;100.00
71105;BME280;58760;48.716;8.962;2023-11-19T07:57:56;96459.97;;;10.42;100.00
71105;BME280;58760;48.716;8.962;2023-11-19T08:00:21;96457.13;;;10.44;100.00
71105;BME280;58760;48.716;8.962;2023-11-19T08:02:46;96461.63;;;10.43;100.00
71105;BME280;58760;48.716;8.962;2023-11-19T08:05:12;96460.75;;;10.51;100.00
71105;BME280;58760;48.716;8.962;2023-11-19T08:07:37;96469.50;;;10.60;100.00
71105;BME280;58760;48.716;8.962;2023-11-19T08:10:04;96454.94;;;10.56;100.00
71105;BME280;58760;48.716;8.962;2023-11-19T08:12:30;96456.88;;;10.62;100.00
71105;BME280;58760;48.716;8.962;2023-11-19T08:14:56;96450.59;;;10.63;100.00
71105;BME280;58760;48.716;8.962;2023-11-19T08:17:26;96451.38;;;10.63;100.00
71105;BME280;58760;48.716;8.962;2023-11-19T08:19:52;96451.00;;;10.74;100.00
71105;BME280;58760;48.716;8.962;2023-11-19T08:22:18;96445.34;;;10.77;100.00
71105;BME280;58760;48.716;8.962;2023-11-19T08:24:43;96442.69;;;10.77;100.00
71105;BME280;58760;48.716;8.962;2023-11-19T08:27:09;96442.19;;;10.74;100.00
71105;BME280;58760;48.716;8.962;2023-11-19T08:29:35;96440.22;;;10.76;100.00
71105;BME280;58760;48.716;8.962;2023-11-19T08:32:01;96464.72;;;10.86;100.00
71105;BME280;58760;48.716;8.962;2023-11-19T08:34:29;96467.88;;;11.04;100.00
71105;BME280;58760;48.716;8.962;2023-11-19T08:36:55;96450.53;;;11.16;100.00
71105;BME280;58760;48.716;8.962;2023-11-19T08:39:24;96452.91;;;11.11;100.00
71105;BME280;58760;48.716;8.962;2023-11-19T08:41:49;96457.19;;;11.12;100.00
71105;BME280;58760;48.716;8.962;2023-11-19T08:44:15;96446.41;;;11.14;100.00
71105;BME280;58760;48.716;8.962;2023-11-19T08:46:51;96446.91;;;11.09;100.00
71105;BME280;58760;48.716;8.962;2023-11-19T08:49:17;96448.97;;;11.22;100.00
71105;BME280;58760;48.716;8.962;2023-11-19T08:51:43;96442.88;;;11.36;100.00
71105;BME280;58760;48.716;8.962;2023-11-19T08:54:08;96438.16;;;11.46;100.00
71105;BME280;58760;48.716;8.962;2023-11-19T08:56:34;96437.78;;;11.34;100.00
71105;BME280;58760;48.716;8.962;2023-11-19T08:59:01;96434.44;;;11.32;100.00
71105;BME280;58760;48.716;8.962;2023-11-19T09:01:26;96442.78;;;11.29;100.00
71105;BME280;58760;48.716;8.962;2023-11-19T09:03:52;96443.34;;;11.25;100.00
71105;BME280;58760;48.716;8.962;2023-11-19T09:06:18;96443.88;;;11.35;100.00
71105;BME280;58760;48.716;8.962;2023-11-19T09:08:43;96438.31;;;11.44;100.00
71105;BME280;58760;48.716;8.962;2023-11-19T09:11:09;96442.78;;;11.67;100.00
71105;BME280;58760;48.716;8.962;2023-11-19T09:13:35;96427.31;;;11.85;100.00
71105;BME280;58760;48.716;8.962;2023-11-19T09:16:00;96429.53;;;11.96;100.00
71105;BME280;58760;48.716;8.962;2023-11-19T09:18:30;96435.19;;;12.22;100.00
71105;BME280;58760;48.716;8.962;2023-11-19T09:20:55;96427.47;;;12.27;100.00
71105;BME280;58760;48.716;8.962;2023-11-19T09:23:20;96430.75;;;12.29;100.00
71105;BME280;58760;48.716;8.962;2023-11-19T09:25:46;96436.03;;;12.58;100.00
71105;BME280;58760;48.716;8.962;2023-11-19T09:28:11;96434.91;;;12.68;100.00
71105;BME280;58760;48.716;8.962;2023-11-19T09:30:38;96441.03;;;12.68;100.00
71105;BME280;58760;48.716;8.962;2023-11-19T09:33:03;96432.03;;;12.84;100.00
71105;BME280;58760;48.716;8.962;2023-11-19T09:35:29;96432.13;;;12.76;100.00
71105;BME280;58760;48.716;8.962;2023-11-19T09:37:54;96432.41;;;12.81;100.00
71105;BME280;58760;48.716;8.962;2023-11-19T09:40:20;96423.19;;;12.83;100.00
71105;BME280;58760;48.716;8.962;2023-11-19T09:42:47;96416.34;;;12.95;100.00
71105;BME280;58760;48.716;8.962;2023-11-19T09:45:16;96417.19;;;12.96;100.00
71105;BME280;58760;48.716;8.962;2023-11-19T09:47:43;96413.13;;;13.00;100.00
71105;BME280;58760;48.716;8.962;2023-11-19T09:50:17;96407.22;;;13.04;100.00
71105;BME280;58760;48.716;8.962;2023-11-19T09:52:46;96397.34;;;13.20;100.00
71105;BME280;58760;48.716;8.962;2023-11-19T09:55:13;96392.88;;;13.27;100.00
71105;BME280;58760;48.716;8.962;2023-11-19T09:57:40;96395.84;;;13.38;100.00
71105;BME280;58760;48.716;8.962;2023-11-19T10:00:07;96397.13;;;13.42;100.00
71105;BME280;58760;48.716;8.962;2023-11-19T10:02:38;96403.13;;;13.51;100.00
71105;BME280;58760;48.716;8.962;2023-11-19T10:05:06;96391.25;;;13.53;100.00
71105;BME280;58760;48.716;8.962;2023-11-19T10:07:35;96376.72;;;13.62;100.00
71105;BME280;58760;48.716;8.962;2023-11-19T10:10:02;96372.75;;;13.80;100.00
71105;BME280;58760;48.716;8.962;2023-11-19T10:12:29;96365.25;;;13.96;100.00
71105;BME280;58760;48.716;8.962;2023-11-19T10:14:57;96359.38;;;14.14;100.00
71105;BME280;58760;48.716;8.962;2023-11-19T10:17:36;96360.13;;;14.42;100.00
71105;BME280;58760;48.716;8.962;2023-11-19T10:20:01;96354.78;;;14.42;100.00
71105;BME280;58760;48.716;8.962;2023-11-19T10:22:28;96354.91;;;14.28;100.00
71105;BME280;58760;48.716;8.962;2023-11-19T10:24:54;96356.78;;;14.27;100.00
71105;BME280;58760;48.716;8.962;2023-11-19T10:27:19;96360.41;;;14.13;100.00
71105;BME280;58760;48.716;8.962;2023-11-19T10:29:48;96352.34;;;14.00;100.00
71105;BME280;58760;48.716;8.962;2023-11-19T10:32:14;96350.53;;;14.07;100.00
71105;BME280;58760;48.716;8.962;2023-11-19T10:34:42;96367.38;;;14.07;100.00
71105;BME280;58760;48.716;8.962;2023-11-19T10:37:09;96367.56;;;14.06;100.00
71105;BME280;58760;48.716;8.962;2023-11-19T10:39:54;96356.97;;;14.32;100.00
71105;BME280;58760;48.716;8.962;2023-11-19T10:42:21;96355.81;;;14.41;100.00
71105;BME280;58760;48.716;8.962;2023-11-19T10:44:46;96353.75;;;14.37;100.00
71105;BME280;58760;48.716;8.962;2023-11-19T10:47:14;96350.78;;;14.25;100.00
71105;BME280;58760;48.716;8.962;2023-11-19T10:49:40;96347.63;;;14.02;100.00
71105;BME280;58760;48.716;8.962;2023-11-19T10:52:08;96331.50;;;14.23;100.00
71105;BME280;58760;48.716;8.962;2023-11-19T10:54:34;96336.56;;;14.59;100.00
71105;BME280;58760;48.716;8.962;2023-11-19T10:57:01;96322.59;;;14.77;100.00
71105;BME280;58760;48.716;8.962;2023-11-19T10:59:31;96327.94;;;14.90;100.00
71105;BME280;58760;48.716;8.962;2023-11-19T11:02:03;96316.44;;;14.89;100.00
71105;BME280;58760;48.716;8.962;2023-11-19T11:04:33;96325.69;;;14.93;100.00
71105;BME280;58760;48.716;8.962;2023-11-19T11:07:07;96312.72;;;14.57;100.00
71105;BME280;58760;48.716;8.962;2023-11-19T11:09:37;96324.63;;;14.61;100.00
71105;BME280;58760;48.716;8.962;2023-11-19T11:12:06;96321.16;;;14.74;100.00
71105;BME280;58760;48.716;8.962;2023-11-19T11:14:32;96327.13;;;14.89;100.00
71105;BME280;58760;48.716;8.962;2023-11-19T11:17:02;96311.72;;;15.31;100.00
71105;BME280;58760;48.716;8.962;2023-11-19T11:19:31;96314.38;;;15.57;100.00
71105;BME280;58760;48.716;8.962;2023-11-19T11:21:57;96324.25;;;15.43;100.00
71105;BME280;58760;48.716;8.962;2023-11-19T11:24:40;96332.28;;;15.24;100.00
71105;BME280;58760;48.716;8.962;2023-11-19T11:33:32;96344.19;;;14.82;100.00
71105;BME280;58760;48.716;8.962;2023-11-19T11:36:13;96338.84;;;14.88;100.00
71105;BME280;58760;48.716;8.962;2023-11-19T11:38:43;96332.47;;;14.83;100.00
71105;BME280;58760;48.716;8.962;2023-11-19T11:41:22;96334.53;;;15.13;100.00
71105;BME280;58760;48.716;8.962;2023-11-19T11:43:52;96326.53;;;15.13;100.00
71105;BME280;58760;48.716;8.962;2023-11-19T11:49:04;96301.81;;;16.59;100.00
71105;BME280;58760;48.716;8.962;2023-11-19T11:59:55;96303.06;;;15.35;100.00
71105;BME280;58760;48.716;8.962;2023-11-19T12:02:22;96304.72;;;16.07;100.00
71105;BME280;58760;48.716;8.962;2023-11-19T12:04:51;96300.28;;;18.23;100.00
71105;BME280;58760;48.716;8.962;2023-11-19T12:07:22;96299.63;;;20.55;100.00
71105;BME280;58760;48.716;8.962;2023-11-19T12:09:52;96291.88;;;22.09;85.99
71105;BME280;58760;48.716;8.962;2023-11-19T12:12:22;96284.47;;;19.40;100.00
71105;BME280;58760;48.716;8.962;2023-11-19T12:15:04;96281.66;;;19.11;100.00
71105;BME280;58760;48.716;8.962;2023-11-19T12:20:03;96253.59;;;26.60;54.37
71105;BME280;58760;48.716;8.962;2023-11-19T12:22:31;96267.78;;;25.12;49.42
71105;BME280;58760;48.716;8.962;2023-11-19T12:24:56;96251.09;;;25.99;47.27
71105;BME280;58760;48.716;8.962;2023-11-19T12:27:22;96246.56;;;25.60;46.61
71105;BME280;58760;48.716;8.962;2023-11-19T12:29:48;96258.94;;;26.21;42.98
71105;BME280;58760;48.716;8.962;2023-11-19T12:32:14;96263.25;;;20.86;67.11
71105;BME280;58760;48.716;8.962;2023-11-19T12:34:39;96246.28;;;25.46;51.37
71105;BME280;58760;48.716;8.962;2023-11-19T12:37:09;96254.16;;;22.19;52.61
71105;BME280;58760;48.716;8.962;2023-11-19T12:39:35;96268.06;;;18.95;87.88
71105;BME280;58760;48.716;8.962;2023-11-19T12:42:01;96260.41;;;24.97;53.73
71105;BME280;58760;48.716;8.962;2023-11-19T12:44:26;96247.72;;;27.26;42.83
71105;BME280;58760;48.716;8.962;2023-11-19T12:47:06;96231.22;;;26.68;44.08
71105;BME280;58760;48.716;8.962;2023-11-19T12:49:35;96213.25;;;27.40;37.98
71105;BME280;58760;48.716;8.962;2023-11-19T12:52:01;96228.75;;;26.23;40.92
71105;BME280;58760;48.716;8.962;2023-11-19T12:54:36;96225.56;;;25.90;41.40
71105;BME280;58760;48.716;8.962;2023-11-19T12:57:03;96219.94;;;27.24;37.01
71105;BME280;58760;48.716;8.962;2023-11-19T12:59:30;96222.75;;;28.24;36.42
71105;BME280;58760;48.716;8.962;2023-11-19T13:01:59;96209.59;;;27.54;37.50
71105;BME280;58760;48.716;8.962;2023-11-19T13:04:28;96209.25;;;28.32;36.37
71105;BME280;58760;48.716;8.962;2023-11-19T13:06:56;96214.47;;;28.71;34.77
71105;BME280;58760;48.716;8.962;2023-11-19T13:09:28;96222.91;;;24.69;42.10
71105;BME280;58760;48.716;8.962;2023-11-19T13:11:55;96249.34;;;21.82;49.64
71105;BME280;58760;48.716;8.962;2023-11-19T13:14:21;96233.81;;;25.50;42.00